Saint Hedwig, TX

02:55 CDT le 22 octobre 2014 (GMT -0500)
San Antonio International | Change Station
CLOSE
Current Station
Aéroport
Location: San Antonio,
Altitude: 794 ft
Stations météo à proximité

Alt. 794 ft 29.53 °N, 98.47 °W | Updated 4 minutes ago

Partiellement nuageux
Partiellement nuageux
66 ° F
Paraît 66 ° F
N
0
Vent Variable Vent de Nord

Aujourd'hui
Haut(e) -- | Bas -- ° F
--% Risque de précip.
Hier
Haut(e) -- | Bas -- ° F
Precip. -- pouce
7:38 AM 6:55 PM
Lune descendante, 3% visible
Pression 30.00 pouce
Visibilité 10.0 Miles terrestres
Nuages Nuageux 25000 ft
Point de rosée 51 ° F
Humidité 59%
Précipitations 0.00 pouce
Profondeur de la couche neigeuse Non disponible.
UV 0 sur 12
Pollen 6.30 sur 12
Ozone Bon
PM2.5 Bon
Flu Activity Sporadic
METAR KSAT 220751Z 00000KT 10SM BKN250 19/11 A3005 RMK AO2 SLP159 T01890106

More Conditions Fewer Conditions

Pression 30.00 pouce
Visibilité 10.0 Miles terrestres
Nuages Nuageux 25000 ft
Point de rosée 51 ° F
Humidité 59%
Précipitations 0.00 pouce
Profondeur de la couche neigeuse Non disponible.
UV 0 sur 12
Pollen 6.30 sur 12
Ozone Bon
PM2.5 Bon
Flu Activity Sporadic
METAR KSAT 220751Z 00000KT 10SM BKN250 19/11 A3005 RMK AO2 SLP159 T01890106

More Conditions Fewer Conditions

10-Day Weather Forecast

Almanac

Astronomie

Oct. 22, 2014 Lever Coucher
Temps réel 07:38 CDT 18:55 CDT
Crépuscule civil 07:14 CDT 19:19 CDT
Crépuscule nautique 06:46 CDT 19:47 CDT
Crépuscule astronomique 06:19 CDT 20:14 CDT
Lune 06:27 CDT 18:18 CDT
Durée de lumière visible 12h 04m
Longueur du jour
11h 16m
Tomorrow will be 1m 39s shorter.
Lune descendante, 3% of the Moon is Illuminated
Aujourd'hui
Lune descendante
Oct 23
Nouveau
Oct 30
Premier quartier
Nov 6
Pleine lune
Nov 14
Dernier quartier

Extrêmes aujourd'hui

State Highs State Lows

Community

WunderPhotos

Upload Photos

1,763,889 Photos téléchargées !

Nearby

Qualité de l'air

  Qualité de l'air Indice de la qualité de l'air Polluant
Hier Moyen
PM2.5
Hier Moyen
OZONE
Actuel Bon
PM2.5
Actuel Bon
OZONE
mercredi Moyen
OZONE
mercredi Bon
PM10
jeudi Moyen
OZONE
jeudi Bon
PM10
vendredi Moyen
OZONE
vendredi Bon
PM10

Épaisseur de neige

Station Depth Altitude
Pas de nouvelles chutes de neige

Activité sismique

Ville Distance Mag. Time & Date
No recent earthquake activity has been reported nearby.
Minimum magnitude displayed is 2.5.

Températures des eaux côtières

Lieu Température
Aucun rapport de station

Stations météo à proximité